الصفحة الرئيسية
METAR-TAF:

METAR-TAF

مطار :

مطار غوستافو روجاس بينيلا الدولي

San Andrés, كولومبيا

دائرة عرض: 12-35N, خط طول: 081-43W, ارتفاع: 1 متر

مراقبة الطقس الحالي

تاريخ ووقت الإصدار 1ساعة و 6 دقيقة قبل الساعة 18:00UTC
ريح 11 عقدة من الشرق/الشمال الشرقي, الاتجاه يتراوح بين الشمال/الشمال الشرقي و الشرق/الجنوب الشرقي
درجة الحرارة 31°درجة مئوية
الرطوبة 66%
ضغط 1013 hPa
الرؤية 10 كم أو أكثر
غيوم قليلة على ارتفاع 1800 قدم
غيوم مفككة على ارتفاع 20000 قدم

METAR: SKSP 141800Z 06011KT 030V120 9999 FEW018 BKN200 31/24 A2991

زمن: 14:06 (19:06 UTC)

توقعات

تاريخ ووقت الإصدار 2ساعات و 6 دقيقة قبل الساعة 17:00UTC
التوقعات صالحة من14 الساعة 18 UTC إلى 15 الساعة 18 UTC
ريح 12 عقدة من الشرق/الشمال الشرقي
الرؤية 10 كم أو أكثر
غيوم قليلة على ارتفاع 1800 قدم
غيوم مفككة على ارتفاع 30000 قدم
نظرية الاحتمالات 30% :
مؤقت
من 14 الساعة 21 UTC إلى 14 الساعة 23 UTC
الرؤية: 8000 متر
غيوم متفرقة على ارتفاع 1500 قدم, مزن ركامية عمودية.
(خفيف) زخات من المطر

TAF: SKSP 141700Z 1418/1518 06012KT 9999 FEW018 BKN300 PROB30 TEMPO 1421/1423 8000 - SHRA SCT015TCU TX32/1419Z TN26/1511Z

أرصاد الطقس والتوقعات من أكثر من 4000 مطار (تقارير الطقس للمطار METAR والتنبؤ بالطقس بالمطارTAF).

المحطات المتاحة هي النقط الصفراء والحمراء على الخريطة.

حرك المؤشر فوق النقطة لمعرفة اسم المحطة.

ثم انقر لمعرفة أرصاد وتوقعات الطقس.

لتغيير الخارطة: اضغط على الأزرار الخضراء مع رمز الصليب الأسود للتكبير. على الزر الأخضر مع شرطة للتصغير، أو على الأسهم الخضراء للخرائط المجاورة.


METAR-TAF: